Time;durP1;ratioP1;P1;durP2;ratioP2;P2;SDS_P1;SDS_P2;PMS_P1;PMS_P2;Temp;Humidity;BMP_temperature;BMP_pressure;BME280_temperature;BME280_humidity;BME280_pressure;Samples;Min_cycle;Max_cycle;Signal;HPM_P1;HPM_P2
2021/09/13 00:00:37;;;;;;;4.43;3.07;;;;;;;19.39;55.34;98105.81;8414954;28;20398;-68
2021/09/13 00:04:40;;;;;;;5.50;3.03;;;;;;;19.42;55.18;98101.16;8393452;28;20502;-69
2021/09/13 00:08:42;;;;;;;5.07;2.83;;;;;;;19.28;55.26;98104.00;8452703;28;20230;-68
2021/09/13 00:12:47;;;;;;;4.63;3.03;;;;;;;19.27;55.75;98099.75;8452681;28;20221;-67
2021/09/13 00:16:49;;;;;;;6.20;3.27;;;;;;;19.16;55.63;98103.19;8452629;28;20203;-68
2021/09/13 00:20:52;;;;;;;3.20;2.90;;;;;;;19.14;55.84;98099.84;8452417;28;20209;-68
2021/09/13 00:24:55;;;;;;;3.83;2.87;;;;;;;19.14;55.92;98102.47;8452314;28;20497;-68
2021/09/13 00:28:59;;;;;;;5.63;3.43;;;;;;;19.05;55.98;98092.69;8452231;28;20221;-68
2021/09/13 00:33:02;;;;;;;3.43;2.90;;;;;;;19.10;55.92;98099.25;8451636;28;20229;-69
2021/09/13 00:37:05;;;;;;;4.40;3.07;;;;;;;19.02;55.83;98104.25;8451886;28;20199;-68
2021/09/13 00:41:08;;;;;;;2.60;2.40;;;;;;;19.04;55.89;98101.50;8452119;28;20199;-68
2021/09/13 00:45:13;;;;;;;3.30;3.00;;;;;;;19.03;55.64;98099.84;8451658;28;20203;-68
2021/09/13 00:49:15;;;;;;;5.67;2.80;;;;;;;18.95;55.77;98103.03;8451302;28;20200;-68
2021/09/13 00:53:18;;;;;;;6.20;2.87;;;;;;;18.95;55.73;98098.63;8451320;28;20236;-68
2021/09/13 00:57:29;;;;;;;5.40;3.10;;;;;;;18.90;55.86;98103.38;8451124;28;20288;-68
2021/09/13 01:01:33;;;;;;;2.80;2.60;;;;;;;18.87;55.31;98098.38;8442008;28;20206;-68
2021/09/13 01:05:36;;;;;;;7.07;3.20;;;;;;;18.83;55.43;98112.69;8417045;28;20311;-68
2021/09/13 01:09:39;;;;;;;3.00;2.70;;;;;;;18.81;55.80;98098.88;8417452;28;20377;-68
2021/09/13 01:13:42;;;;;;;4.37;3.10;;;;;;;18.82;55.35;98092.66;8417318;28;20231;-68
2021/09/13 01:17:46;;;;;;;2.87;2.67;;;;;;;18.76;55.90;98086.03;8417002;28;20207;-68
2021/09/13 01:21:50;;;;;;;3.03;2.83;;;;;;;18.64;56.27;98084.38;8416878;28;20517;-68
2021/09/13 01:25:54;;;;;;;3.30;3.00;;;;;;;18.69;56.22;98082.22;8417193;28;20207;-68
2021/09/13 01:29:57;;;;;;;5.67;2.80;;;;;;;18.65;56.21;98085.19;8416875;28;20199;-68
2021/09/13 01:34:00;;;;;;;3.17;2.87;;;;;;;18.66;56.41;98095.56;8416694;28;20230;-68
2021/09/13 01:38:03;;;;;;;4.60;2.80;;;;;;;18.65;55.82;98090.44;8416751;28;20199;-68
2021/09/13 01:42:07;;;;;;;4.80;2.77;;;;;;;18.63;55.72;98097.59;8416449;28;20216;-68
2021/09/13 01:46:10;;;;;;;3.57;2.50;;;;;;;18.58;55.84;98087.44;8415989;28;20202;-68
2021/09/13 01:50:13;;;;;;;4.83;2.70;;;;;;;18.52;55.74;98093.13;8416526;28;20211;-68
2021/09/13 01:54:15;;;;;;;3.03;2.70;;;;;;;18.52;55.30;98094.00;8416532;28;20223;-68
2021/09/13 01:58:20;;;;;;;4.23;2.50;;;;;;;18.48;55.24;98096.94;8416196;28;20501;-68
2021/09/13 02:02:22;;;;;;;4.47;2.77;;;;;;;18.42;55.70;98094.78;8416057;28;20486;-68
2021/09/13 02:06:26;;;;;;;2.80;2.60;;;;;;;18.39;56.11;98095.88;8415895;28;20398;-68
2021/09/13 02:10:29;;;;;;;4.07;2.80;;;;;;;18.39;56.03;98090.63;8416061;28;20393;-68
2021/09/13 02:14:33;;;;;;;4.17;2.80;;;;;;;18.26;56.27;98090.69;8415852;28;20227;-68
2021/09/13 02:18:36;;;;;;;5.10;2.73;;;;;;;18.25;56.36;98093.41;8415958;28;20199;-68
2021/09/13 02:22:39;;;;;;;4.63;2.80;;;;;;;18.28;56.00;98095.81;8415766;28;20199;-68
2021/09/13 02:26:42;;;;;;;4.23;2.97;;;;;;;18.26;55.44;98098.53;8415476;28;20208;-68
2021/09/13 02:30:46;;;;;;;2.90;2.57;;;;;;;18.26;55.32;98098.53;8415638;28;20381;-68
2021/09/13 02:34:49;;;;;;;3.87;3.10;;;;;;;18.26;55.62;98095.94;8415335;28;20237;-68
2021/09/13 02:38:51;;;;;;;3.57;3.10;;;;;;;18.26;56.02;98098.53;8415509;28;20199;-68
2021/09/13 02:42:54;;;;;;;3.47;2.80;;;;;;;18.23;55.65;98096.13;8415393;28;20199;-68
2021/09/13 02:46:58;;;;;;;2.97;2.73;;;;;;;18.12;55.43;98089.06;8415318;28;20214;-68
2021/09/13 02:51:04;;;;;;;5.07;3.00;;;;;;;18.08;55.59;98086.78;8415526;28;20207;-68
2021/09/13 02:55:07;;;;;;;4.80;3.03;;;;;;;18.06;55.77;98091.31;8415925;28;20235;-68
2021/09/13 02:59:10;;;;;;;3.00;2.70;;;;;;;17.98;56.12;98082.22;8421577;28;20199;-68
2021/09/13 03:03:14;;;;;;;3.10;2.87;;;;;;;18.02;56.32;98085.44;8421196;28;20199;-68
2021/09/13 03:07:18;;;;;;;4.10;2.90;;;;;;;17.90;55.82;98083.72;8421061;28;20234;-68
2021/09/13 03:11:22;;;;;;;3.27;2.80;;;;;;;17.96;55.63;98076.25;8421189;28;20199;-68
2021/09/13 03:15:24;;;;;;;3.83;2.90;;;;;;;17.89;55.65;98077.63;8420977;28;20237;-68
2021/09/13 03:19:29;;;;;;;3.30;3.00;;;;;;;17.94;55.65;98078.16;8420897;28;20213;-68
2021/09/13 03:23:32;;;;;;;3.43;2.80;;;;;;;17.84;56.21;98069.28;8420807;28;20383;-68
2021/09/13 03:27:35;;;;;;;3.63;3.10;;;;;;;17.89;56.27;98074.19;8420543;28;20210;-68
2021/09/13 03:31:38;;;;;;;4.27;3.40;;;;;;;17.86;56.23;98079.63;8420485;28;20206;-68
2021/09/13 03:35:42;;;;;;;3.90;3.60;;;;;;;17.84;56.97;98085.00;8420040;28;21138;-68
2021/09/13 03:39:46;;;;;;;4.60;3.67;;;;;;;17.81;57.46;98079.94;8402716;28;20490;-68
2021/09/13 03:43:49;;;;;;;4.43;3.87;;;;;;;17.77;57.03;98084.56;8402729;28;20380;-68
2021/09/13 03:47:52;;;;;;;3.67;3.10;;;;;;;17.76;56.04;98076.81;8402382;28;20509;-68
2021/09/13 03:51:56;;;;;;;4.23;2.90;;;;;;;17.66;55.83;98075.81;8399808;28;20426;-68
2021/09/13 03:55:59;;;;;;;6.20;3.10;;;;;;;17.58;55.46;98086.84;8405461;28;20227;-68
2021/09/13 04:00:02;;;;;;;3.40;2.50;;;;;;;17.59;55.66;98080.63;8419663;28;20385;-68
2021/09/13 04:04:06;;;;;;;2.70;2.50;;;;;;;17.59;55.37;98081.50;8419366;28;20221;-68
2021/09/13 04:08:20;;;;;;;3.63;2.67;;;;;;;17.55;55.27;98081.81;8418782;28;20235;-68
2021/09/13 04:12:22;;;;;;;5.07;2.70;;;;;;;17.49;55.58;98075.22;8419352;28;20358;-68
2021/09/13 04:16:25;;;;;;;3.33;2.80;;;;;;;17.53;55.46;98079.28;8418922;28;20534;-68
2021/09/13 04:20:28;;;;;;;4.40;2.83;;;;;;;17.52;55.38;98071.56;8419040;28;20206;-68
2021/09/13 04:24:32;;;;;;;5.73;3.10;;;;;;;17.48;55.82;98070.94;8418882;28;20392;-68
2021/09/13 04:28:35;;;;;;;5.10;3.30;;;;;;;17.44;56.14;98079.97;8418589;28;20206;-68
2021/09/13 04:32:38;;;;;;;5.77;3.57;;;;;;;17.51;56.87;98075.94;8418386;28;20226;-69
2021/09/13 04:36:45;;;;;;;5.53;3.60;;;;;;;17.48;56.70;98083.22;8418363;28;20234;-68
2021/09/13 04:40:49;;;;;;;4.33;3.60;;;;;;;17.46;57.08;98087.69;8418095;28;20211;-68
2021/09/13 04:44:52;;;;;;;4.33;3.73;;;;;;;17.48;56.88;98077.97;8418099;28;20206;-68
2021/09/13 04:48:54;;;;;;;6.47;3.37;;;;;;;17.50;56.50;98084.75;8417972;28;20210;-68
2021/09/13 04:52:57;;;;;;;8.27;3.90;;;;;;;17.50;56.75;98076.91;8417835;28;20199;-68
2021/09/13 04:57:01;;;;;;;5.83;4.07;;;;;;;17.47;56.85;98082.34;8417590;28;20223;-68
2021/09/13 05:01:07;;;;;;;11.47;4.00;;;;;;;17.47;56.87;98084.13;8417671;28;20221;-68
2021/09/13 05:05:11;;;;;;;4.20;3.80;;;;;;;17.49;57.10;98085.69;8417406;28;20276;-68
2021/09/13 05:09:13;;;;;;;5.37;3.90;;;;;;;17.47;57.22;98078.91;8417623;28;20203;-68
2021/09/13 05:13:18;;;;;;;6.80;3.97;;;;;;;17.40;57.56;98081.09;8417045;28;20218;-68
2021/09/13 05:17:20;;;;;;;5.33;3.80;;;;;;;17.55;57.36;98084.44;8416906;28;20226;-68
2021/09/13 05:21:23;;;;;;;5.97;3.30;;;;;;;17.70;56.08;98082.50;8416096;28;20199;-68
2021/09/13 05:25:26;;;;;;;5.37;3.60;;;;;;;17.78;56.37;98080.16;8416668;28;20202;-68
2021/09/13 05:29:30;;;;;;;4.97;3.30;;;;;;;17.98;56.19;98082.22;8416813;28;20381;-68
2021/09/13 05:33:33;;;;;;;7.33;3.93;;;;;;;17.89;56.86;98082.03;8416541;28;20226;-68
2021/09/13 05:37:36;;;;;;;7.93;4.30;;;;;;;17.97;56.18;98084.94;8416574;28;20230;-68
2021/09/13 05:41:39;;;;;;;5.10;3.77;;;;;;;18.00;56.63;98089.13;8416319;28;20213;-68
2021/09/13 05:45:47;;;;;;;7.47;4.00;;;;;;;18.13;56.03;98093.34;8416742;28;20432;-68
2021/09/13 05:49:50;;;;;;;6.63;3.80;;;;;;;18.23;55.92;98098.75;8416196;28;20203;-68
2021/09/13 05:53:53;;;;;;;4.10;3.30;;;;;;;18.12;55.29;98103.94;8416214;28;20207;-68
2021/09/13 05:57:56;;;;;;;7.40;3.03;;;;;;;18.16;55.37;98100.16;8415906;28;20226;-68
2021/09/13 06:02:01;;;;;;;6.77;3.43;;;;;;;18.16;54.82;98106.25;8416097;28;20198;-68
2021/09/13 06:06:04;;;;;;;3.77;3.17;;;;;;;18.32;54.74;98107.75;8416122;28;20226;-68
2021/09/13 06:10:10;;;;;;;9.77;3.77;;;;;;;18.66;54.58;98110.47;8415901;28;20199;-68
2021/09/13 06:14:13;;;;;;;3.83;3.40;;;;;;;19.06;53.81;98104.84;8415935;28;20207;-68
2021/09/13 06:18:17;;;;;;;5.53;3.97;;;;;;;19.04;54.36;98098.88;8415912;28;20235;-68
2021/09/13 06:22:20;;;;;;;3.53;2.70;;;;;;;19.76;58.50;98114.25;8412428;28;20195;-66
2021/09/13 06:26:24;;;;;;;6.10;3.00;;;;;;;20.04;56.98;98107.63;8409697;28;20206;-66
2021/09/13 06:30:26;;;;;;;13.13;3.90;;;;;;;20.41;55.72;98119.56;8399717;28;20250;-66
2021/09/13 06:34:31;;;;;;;6.80;3.47;;;;;;;20.25;53.92;98122.63;8404636;28;20210;-66
2021/09/13 06:38:34;;;;;;;6.10;4.33;;;;;;;20.26;52.10;98121.69;8411895;28;20225;-68
2021/09/13 06:42:36;;;;;;;5.97;4.33;;;;;;;20.01;52.18;98120.19;8404239;28;20203;-69
2021/09/13 06:46:45;;;;;;;6.93;4.63;;;;;;;19.95;52.77;98121.50;8404490;28;20199;-69
2021/09/13 06:50:50;;;;;;;8.67;4.97;;;;;;;20.14;52.41;98120.84;8404314;28;20382;-69
2021/09/13 06:54:53;;;;;;;14.03;4.90;;;;;;;20.26;52.19;98119.06;8404077;28;20202;-69
2021/09/13 06:58:56;;;;;;;6.67;4.70;;;;;;;20.25;51.59;98126.06;8404081;28;20219;-69
2021/09/13 07:02:59;;;;;;;6.63;5.67;;;;;;;19.59;54.07;98128.72;8404413;28;20487;-69
2021/09/13 07:07:05;;;;;;;7.10;5.20;;;;;;;20.54;51.86;98127.28;8404021;28;20243;-69
2021/09/13 07:11:08;;;;;;;7.53;5.47;;;;;;;20.77;50.99;98125.41;8403675;28;20195;-69
2021/09/13 07:15:11;;;;;;;6.37;5.40;;;;;;;20.78;51.01;98127.91;8418325;28;20341;-69
2021/09/13 07:19:14;;;;;;;6.40;4.73;;;;;;;21.29;50.57;98134.16;8420872;28;20246;-69
2021/09/13 07:23:18;;;;;;;7.17;5.30;;;;;;;21.25;50.54;98141.50;8408934;28;20208;-69
2021/09/13 07:27:21;;;;;;;6.13;5.53;;;;;;;21.16;50.95;98149.34;8403140;28;20486;-69
2021/09/13 07:31:24;;;;;;;7.33;5.07;;;;;;;21.19;51.87;98155.19;8411706;28;20195;-64
2021/09/13 07:35:27;;;;;;;7.73;4.70;;;;;;;21.29;52.70;98147.31;8420202;28;20219;-64
2021/09/13 07:39:31;;;;;;;29.53;6.00;;;;;;;21.89;51.14;98155.34;8420202;28;20206;-65
2021/09/13 07:43:34;;;;;;;9.07;5.57;;;;;;;21.68;50.76;98158.03;8419214;28;20198;-64
2021/09/13 07:47:37;;;;;;;10.03;6.20;;;;;;;21.85;50.42;98161.84;8420086;28;20212;-64
2021/09/13 07:51:43;;;;;;;9.60;5.90;;;;;;;21.79;51.89;98163.22;8419896;28;20390;-64
2021/09/13 07:55:47;;;;;;;8.43;6.00;;;;;;;21.77;51.00;98161.69;8419655;28;20207;-64
2021/09/13 07:59:50;;;;;;;7.90;6.50;;;;;;;21.53;51.60;98160.19;8417745;28;20225;-66
2021/09/13 08:03:53;;;;;;;7.57;6.03;;;;;;;21.87;51.31;98173.09;8419232;28;20289;-65
2021/09/13 08:07:56;;;;;;;9.73;6.13;;;;;;;22.32;50.06;98174.47;8419123;28;20306;-66
2021/09/13 08:12:00;;;;;;;11.90;5.60;;;;;;;22.89;49.21;98169.34;8419208;28;20221;-65
2021/09/13 08:16:03;;;;;;;9.60;6.37;;;;;;;23.03;49.52;98172.38;8418962;28;20225;-68
2021/09/13 08:20:08;;;;;;;8.00;6.00;;;;;;;23.06;48.68;98178.38;8418397;28;20245;-70
2021/09/13 08:24:11;;;;;;;8.10;5.83;;;;;;;23.49;48.04;98179.63;8418132;28;20396;-69
2021/09/13 08:28:19;;;;;;;6.40;5.80;;;;;;;23.61;47.53;98179.31;8418710;28;20413;-67
2021/09/13 08:32:22;;;;;;;8.40;5.93;;;;;;;24.11;47.69;98190.53;8417983;28;20546;-67
2021/09/13 08:36:25;;;;;;;6.63;5.10;;;;;;;24.02;46.30;98188.75;8418532;28;20230;-68
2021/09/13 08:40:28;;;;;;;9.10;5.67;;;;;;;24.20;46.27;98192.28;8417302;28;20217;-65
2021/09/13 08:44:34;;;;;;;8.90;5.33;;;;;;;24.40;45.36;98190.31;8418084;28;20211;-64
2021/09/13 08:48:40;;;;;;;8.00;5.07;;;;;;;23.98;45.19;98199.63;8409077;28;20195;-65
2021/09/13 08:52:43;;;;;;;11.87;4.57;;;;;;;24.75;44.87;98201.91;8400300;28;20202;-65
2021/09/13 08:56:51;;;;;;;7.87;4.23;;;;;;;24.95;42.83;98202.59;8403012;28;20230;-65
2021/09/13 09:00:56;;;;;;;6.53;3.90;;;;;;;25.47;42.37;98199.97;8416031;28;20199;-65
2021/09/13 09:05:02;;;;;;;5.17;4.10;;;;;;;25.78;41.81;98196.84;8413936;28;20195;-66
2021/09/13 09:09:07;;;;;;;7.70;4.30;;;;;;;25.94;41.36;98190.81;8417248;28;20209;-65
2021/09/13 09:13:12;;;;;;;8.80;4.47;;;;;;;26.00;41.69;98206.06;8417247;28;20209;-65
2021/09/13 09:17:23;;;;;;;8.50;4.40;;;;;;;26.31;40.33;98195.72;8417199;28;20227;-64
2021/09/13 09:21:34;;;;;;;6.90;4.00;;;;;;;26.84;39.97;98198.13;8417046;28;20208;-65
2021/09/13 09:25:39;;;;;;;5.77;3.87;;;;;;;26.97;38.54;98190.47;8417113;28;20209;-64
2021/09/13 09:29:42;;;;;;;5.30;3.47;;;;;;;27.47;37.15;98196.59;8416909;28;20212;-63
2021/09/13 09:33:47;;;;;;;3.00;2.47;;;;;;;27.42;35.62;98196.28;8416667;28;20267;-63
2021/09/13 09:37:50;;;;;;;5.13;2.47;;;;;;;27.77;34.78;98194.19;8416393;28;20234;-64
2021/09/13 09:41:55;;;;;;;2.87;2.00;;;;;;;27.90;34.63;98191.00;8416504;28;20213;-64
2021/09/13 09:45:58;;;;;;;2.87;2.00;;;;;;;28.00;33.66;98191.59;8416535;28;20200;-63
2021/09/13 09:50:03;;;;;;;3.27;2.23;;;;;;;27.92;34.43;98181.00;8415571;28;20204;-63
2021/09/13 09:54:10;;;;;;;20.80;2.80;;;;;;;27.96;32.94;98175.16;8414727;28;20209;-64
2021/09/13 09:58:14;;;;;;;2.73;1.93;;;;;;;28.32;33.06;98177.28;8411624;28;20221;-79
2021/09/13 10:02:18;;;;;;;4.80;2.40;;;;;;;27.79;33.04;98177.03;8411694;28;20200;-69
2021/09/13 10:06:23;;;;;;;9.23;2.13;;;;;;;28.05;32.34;98174.13;8410104;28;20237;-70
2021/09/13 10:10:29;;;;;;;3.93;2.10;;;;;;;28.05;32.95;98174.13;8412434;28;20211;-68
2021/09/13 10:14:33;;;;;;;5.27;2.10;;;;;;;28.23;32.43;98173.00;8413390;28;20269;-69
2021/09/13 10:18:36;;;;;;;8.20;2.33;;;;;;;28.72;31.98;98166.56;8409686;28;20558;-69
2021/09/13 10:22:44;;;;;;;3.40;1.90;;;;;;;28.22;32.96;98172.19;8398520;28;20199;-69
2021/09/13 10:26:49;;;;;;;3.83;1.77;;;;;;;27.73;33.71;98164.41;8409037;28;20198;-69
2021/09/13 10:30:53;;;;;;;3.73;1.83;;;;;;;27.65;33.59;98162.63;8398671;28;20197;-70
2021/09/13 10:35:18;;;;;;;2.00;1.80;;;;;;;28.18;33.23;98159.41;8397438;28;20539;-69
2021/09/13 10:40:01;;;;;;;2.00;1.80;;;;;;;29.00;32.55;98156.97;8396553;28;20243;-64
2021/09/13 10:44:05;;;;;;;6.37;2.20;;;;;;;29.12;32.02;98141.34;8394554;28;20197;-64
2021/09/13 10:48:18;;;;;;;4.30;2.03;;;;;;;27.93;34.08;98148.06;8397877;28;20259;-64
2021/09/13 10:52:35;;;;;;;2.47;1.80;;;;;;;28.84;32.99;98147.31;8397529;28;20207;-64
2021/09/13 10:56:39;;;;;;;4.90;2.07;;;;;;;28.49;33.49;98158.56;8398970;28;20201;-64
2021/09/13 11:01:10;;;;;;;7.13;2.03;;;;;;;27.56;35.07;98158.34;8414104;28;20206;-63
2021/09/13 11:05:20;;;;;;;2.83;1.73;;;;;;;27.39;35.61;98152.22;8381804;28;20205;-65
2021/09/13 11:09:24;;;;;;;3.03;2.20;;;;;;;27.23;36.43;98154.91;8381759;28;20204;-65
2021/09/13 11:13:28;;;;;;;3.30;2.00;;;;;;;27.06;37.27;98154.13;8381670;28;20206;-65
2021/09/13 11:17:31;;;;;;;4.87;2.20;;;;;;;26.92;36.31;98152.94;8383354;28;20571;-65
2021/09/13 11:21:39;;;;;;;2.50;1.80;;;;;;;26.94;37.24;98150.13;8395389;28;20197;-65
2021/09/13 11:25:56;;;;;;;4.13;2.23;;;;;;;27.03;37.00;98149.94;8387799;28;20200;-65
2021/09/13 11:30:00;;;;;;;4.03;2.10;;;;;;;27.69;36.10;98144.50;8387502;28;20201;-64
2021/09/13 11:34:05;;;;;;;4.70;2.33;;;;;;;27.50;36.30;98135.91;8387150;28;20541;-64
2021/09/13 11:38:08;;;;;;;5.80;2.27;;;;;;;27.17;37.81;98136.97;8387230;28;20547;-64
2021/09/13 11:42:14;;;;;;;4.20;2.47;;;;;;;27.43;36.78;98142.91;8387084;28;20290;-64
2021/09/13 11:46:19;;;;;;;4.93;2.57;;;;;;;28.01;34.62;98135.56;8386894;28;20221;-64
2021/09/13 11:50:22;;;;;;;2.53;2.20;;;;;;;28.13;34.36;98135.97;8386841;28;20212;-64
2021/09/13 11:54:25;;;;;;;6.00;2.30;;;;;;;27.97;35.99;98136.91;8389289;28;20200;-64
2021/09/13 11:58:27;;;;;;;5.93;1.90;;;;;;;28.68;35.08;98133.28;8402100;28;20226;-64
2021/09/13 12:02:32;;;;;;;2.60;2.03;;;;;;;28.92;34.11;98137.56;8408278;28;20361;-64
2021/09/13 12:06:35;;;;;;;2.83;1.83;;;;;;;29.35;33.45;98127.97;8419494;28;20310;-64
2021/09/13 12:11:00;;;;;;;3.20;1.80;;;;;;;28.14;34.99;98127.00;8419698;28;20206;-64
2021/09/13 12:15:09;;;;;;;2.20;1.73;;;;;;;28.20;35.62;98122.81;8419185;28;20202;-64
2021/09/13 12:19:21;;;;;;;2.60;1.67;;;;;;;27.76;35.89;98126.00;8419117;28;20545;-65
2021/09/13 12:23:26;;;;;;;3.37;1.73;;;;;;;27.34;37.11;98121.84;8418815;28;20201;-64
2021/09/13 12:27:29;;;;;;;4.10;2.03;;;;;;;27.19;37.40;98111.03;8418457;28;20205;-64
2021/09/13 12:31:32;;;;;;;5.27;1.90;;;;;;;27.04;38.02;98118.91;8418134;28;20296;-64
2021/09/13 12:35:40;;;;;;;2.13;1.70;;;;;;;27.18;37.61;98110.22;8418358;28;20230;-64
2021/09/13 12:40:02;;;;;;;2.67;1.97;;;;;;;27.39;37.84;98104.38;8418495;28;20229;-64
2021/09/13 12:44:14;;;;;;;4.40;1.70;;;;;;;28.02;36.73;98102.59;8418285;28;20223;-64
2021/09/13 12:48:24;;;;;;;2.90;1.80;;;;;;;28.29;35.52;98097.75;8417946;28;20211;-64
2021/09/13 12:52:46;;;;;;;4.17;1.90;;;;;;;28.24;35.96;98090.31;8418161;28;20575;-65
2021/09/13 12:56:51;;;;;;;2.13;1.70;;;;;;;28.09;35.57;98086.75;8417568;28;20207;-64
2021/09/13 13:00:55;;;;;;;2.57;1.70;;;;;;;28.59;35.27;98077.41;8417451;28;20402;-64
2021/09/13 13:04:59;;;;;;;5.17;2.10;;;;;;;28.54;34.32;98074.47;8417122;28;20205;-64
2021/09/13 13:09:04;;;;;;;3.23;2.00;;;;;;;28.64;33.76;98066.22;8417262;28;20205;-64
2021/09/13 13:13:07;;;;;;;3.03;2.10;;;;;;;28.78;33.84;98062.72;8417355;28;20205;-64
2021/09/13 13:17:10;;;;;;;2.53;2.00;;;;;;;28.93;34.57;98065.41;8417309;28;20523;-64
2021/09/13 13:21:13;;;;;;;3.57;2.07;;;;;;;29.11;33.93;98069.56;8417051;28;20229;-64
2021/09/13 13:25:17;;;;;;;3.43;2.00;;;;;;;29.22;33.34;98053.94;8416836;28;20199;-64
2021/09/13 13:29:21;;;;;;;2.10;1.90;;;;;;;29.02;33.49;98044.84;8394825;28;20225;-64
2021/09/13 13:33:24;;;;;;;4.67;2.10;;;;;;;29.27;33.28;98044.59;8399196;28;20280;-64
2021/09/13 13:37:27;;;;;;;2.33;1.60;;;;;;;29.37;34.21;98032.59;8399245;28;20193;-64
2021/09/13 13:41:31;;;;;;;3.90;1.80;;;;;;;29.48;33.25;98027.81;8398290;28;20225;-65
2021/09/13 13:45:34;;;;;;;3.03;1.70;;;;;;;29.58;33.44;98031.00;8399048;28;20192;-64
2021/09/13 13:49:37;;;;;;;2.67;1.87;;;;;;;29.59;33.14;98022.00;8398893;28;20199;-70
2021/09/13 13:53:40;;;;;;;4.03;2.00;;;;;;;29.38;33.24;98025.44;8398794;28;20259;-70
2021/09/13 13:57:44;;;;;;;2.37;1.80;;;;;;;29.36;32.88;98030.97;8388070;28;20199;-70
2021/09/13 14:01:47;;;;;;;5.03;2.00;;;;;;;29.06;32.79;98027.47;8393907;28;20401;-70
2021/09/13 14:05:50;;;;;;;2.90;1.90;;;;;;;28.77;33.80;98026.44;8415658;28;20238;-71
2021/09/13 14:10:03;;;;;;;2.27;1.80;;;;;;;28.74;33.07;98028.66;8416087;28;20430;-71
2021/09/13 14:14:08;;;;;;;11.67;2.30;;;;;;;29.20;33.64;98029.31;8415994;28;20205;-70
2021/09/13 14:18:11;;;;;;;6.53;2.07;;;;;;;29.41;33.26;98028.53;8415983;28;20255;-64
2021/09/13 14:22:13;;;;;;;4.93;1.90;;;;;;;29.36;33.15;98024.78;8415937;28;20201;-64
2021/09/13 14:26:16;;;;;;;10.53;2.07;;;;;;;29.24;33.42;98019.09;8415660;28;20385;-64
2021/09/13 14:30:24;;;;;;;23.97;2.50;;;;;;;28.93;32.39;98012.09;8415534;28;20203;-64
2021/09/13 14:34:26;;;;;;;4.13;2.00;;;;;;;28.84;33.44;98022.06;8415378;28;20294;-64
2021/09/13 14:38:29;;;;;;;10.67;2.33;;;;;;;28.87;33.57;98015.50;8397684;28;20247;-64
2021/09/13 14:42:32;;;;;;;3.17;1.93;;;;;;;28.92;33.43;98009.63;8415464;28;20218;-64
2021/09/13 14:46:37;;;;;;;4.13;1.80;;;;;;;28.69;32.59;97999.06;8415344;28;20301;-64
2021/09/13 14:50:40;;;;;;;5.33;1.80;;;;;;;28.41;34.38;98002.31;8415476;28;20207;-64
2021/09/13 14:54:43;;;;;;;4.67;2.30;;;;;;;27.75;34.50;98002.78;8421768;28;20393;-64
2021/09/13 14:58:45;;;;;;;2.83;1.83;;;;;;;27.92;34.96;98002.72;8421528;28;20232;-64
2021/09/13 15:02:50;;;;;;;2.53;1.90;;;;;;;27.49;34.70;98003.97;8421265;28;20224;-64
2021/09/13 15:06:53;;;;;;;2.23;2.00;;;;;;;27.30;35.12;98001.72;8418122;28;20414;-64
2021/09/13 15:10:55;;;;;;;2.03;1.70;;;;;;;27.56;35.70;98000.59;8421243;28;20231;-64
2021/09/13 15:15:00;;;;;;;2.27;1.90;;;;;;;27.41;35.54;98001.31;8420990;28;20204;-64
2021/09/13 15:19:04;;;;;;;4.50;2.03;;;;;;;27.53;35.77;97996.47;8420908;28;20236;-70
2021/09/13 15:23:07;;;;;;;6.37;2.00;;;;;;;27.20;35.68;98001.91;8420736;28;20202;-70
2021/09/13 15:27:10;;;;;;;5.20;2.20;;;;;;;27.10;37.07;97996.78;8420743;28;20205;-70
2021/09/13 15:31:13;;;;;;;4.03;1.90;;;;;;;27.08;36.94;97993.47;8420581;28;20205;-70
2021/09/13 15:35:17;;;;;;;3.37;1.90;;;;;;;26.98;36.93;97992.00;8420445;28;20238;-70
2021/09/13 15:39:20;;;;;;;4.00;1.90;;;;;;;26.88;37.19;97993.06;8420585;28;20238;-70
2021/09/13 15:43:23;;;;;;;5.03;2.50;;;;;;;26.72;37.50;97988.63;8420438;28;20203;-69
2021/09/13 15:47:26;;;;;;;17.53;2.63;;;;;;;26.55;38.09;97986.97;8419319;28;20207;-67
2021/09/13 15:51:30;;;;;;;2.67;2.10;;;;;;;26.24;39.12;97987.69;8419838;28;20502;-67
2021/09/13 15:55:33;;;;;;;3.47;1.93;;;;;;;25.99;38.92;97983.34;8419681;28;20283;-67
2021/09/13 15:59:36;;;;;;;4.83;1.83;;;;;;;25.94;38.67;97989.19;8419432;28;20239;-67
2021/09/13 16:03:39;;;;;;;3.03;2.17;;;;;;;25.88;38.98;97990.63;8418605;28;20235;-66
2021/09/13 16:07:44;;;;;;;5.40;2.30;;;;;;;25.86;39.27;97989.97;8404551;28;20307;-66
2021/09/13 16:11:47;;;;;;;3.87;1.83;;;;;;;25.78;40.53;97987.31;8402099;28;20205;-66
2021/09/13 16:15:50;;;;;;;7.17;1.90;;;;;;;25.71;41.35;97983.66;8401938;28;20389;-66
2021/09/13 16:19:53;;;;;;;5.67;2.10;;;;;;;25.61;40.98;97986.47;8399631;28;20225;-66
2021/09/13 16:23:57;;;;;;;6.47;2.13;;;;;;;25.56;41.31;97983.47;8401481;28;20209;-66
2021/09/13 16:28:00;;;;;;;5.63;2.07;;;;;;;25.43;40.11;97989.22;8401359;28;20210;-66
2021/09/13 16:32:08;;;;;;;3.47;2.27;;;;;;;25.42;41.79;97995.53;8401249;28;20208;-66
2021/09/13 16:36:11;;;;;;;4.23;2.13;;;;;;;25.35;42.22;97986.56;8400950;28;20212;-66
2021/09/13 16:40:38;;;;;;;2.33;2.00;;;;;;;25.18;42.94;97997.06;8400703;28;20540;-67
2021/09/13 16:44:43;;;;;;;4.93;1.97;;;;;;;25.22;43.12;97991.44;8400740;28;20199;-67
2021/09/13 16:48:46;;;;;;;4.17;2.27;;;;;;;25.10;43.08;97997.03;8400442;28;20492;-62
2021/09/13 16:52:50;;;;;;;4.13;2.50;;;;;;;25.07;42.93;98001.81;8400267;28;20198;-62
2021/09/13 16:56:54;;;;;;;6.23;2.30;;;;;;;25.00;42.86;98000.78;8400422;28;20191;-63
2021/09/13 17:00:57;;;;;;;2.33;1.97;;;;;;;24.92;44.16;98004.22;8408582;28;20222;-63
2021/09/13 17:05:00;;;;;;;4.47;2.57;;;;;;;24.86;44.27;97999.56;8404133;28;20208;-64
2021/09/13 17:09:03;;;;;;;5.53;3.23;;;;;;;24.59;45.02;98007.53;8404582;28;20196;-63
2021/09/13 17:13:08;;;;;;;6.47;2.70;;;;;;;24.55;45.50;98003.53;8400121;28;20193;-63
2021/09/13 17:17:10;;;;;;;6.23;2.70;;;;;;;24.54;45.18;98003.69;8420793;28;20202;-63
2021/09/13 17:21:18;;;;;;;7.17;3.03;;;;;;;24.54;45.67;97998.38;8450591;28;20241;-62
2021/09/13 17:25:21;;;;;;;7.43;3.20;;;;;;;24.42;45.70;98002.25;8450257;28;20199;-63
2021/09/13 17:29:26;;;;;;;8.03;2.60;;;;;;;24.38;46.11;98007.84;8450097;28;20203;-63
2021/09/13 17:33:28;;;;;;;7.20;3.00;;;;;;;24.31;46.60;97998.91;8444217;28;20428;-64
2021/09/13 17:37:31;;;;;;;7.03;3.00;;;;;;;24.18;46.35;97996.63;8416854;28;20203;-63
2021/09/13 17:41:35;;;;;;;9.03;2.87;;;;;;;24.11;46.64;97997.41;8416335;28;20227;-63
2021/09/13 17:45:40;;;;;;;6.97;3.10;;;;;;;23.97;46.64;97998.75;8416820;28;20203;-63
2021/09/13 17:49:43;;;;;;;3.73;2.60;;;;;;;24.02;47.25;97993.03;8416635;28;20203;-63
2021/09/13 17:53:47;;;;;;;4.17;2.80;;;;;;;23.96;47.53;97997.13;8416292;28;20203;-63
2021/09/13 17:57:50;;;;;;;48.27;5.03;;;;;;;23.89;47.84;98001.34;8416159;28;20205;-63
2021/09/13 18:01:54;;;;;;;51.97;5.37;;;;;;;23.79;48.17;98002.25;8416009;28;20258;-63
2021/09/13 18:05:57;;;;;;;72.00;6.30;;;;;;;23.74;48.15;98001.84;8415956;28;20235;-63
2021/09/13 18:10:01;;;;;;;9.93;3.40;;;;;;;23.64;47.91;98006.34;8416239;28;20423;-63
2021/09/13 18:14:03;;;;;;;5.53;3.17;;;;;;;23.66;47.98;98006.22;8415933;28;20209;-63
2021/09/13 18:18:08;;;;;;;4.07;2.60;;;;;;;23.60;47.71;98005.81;8415826;28;20194;-63
2021/09/13 18:22:11;;;;;;;6.67;3.17;;;;;;;23.55;48.37;98013.38;8415724;28;20233;-63
2021/09/13 18:26:13;;;;;;;9.70;3.40;;;;;;;23.50;48.90;98014.81;8416900;28;20230;-63
2021/09/13 18:30:16;;;;;;;3.90;3.13;;;;;;;23.43;48.93;98004.81;8422490;28;20396;-63
2021/09/13 18:34:21;;;;;;;7.40;3.93;;;;;;;23.35;49.34;98015.31;8422380;28;20222;-63
2021/09/13 18:38:23;;;;;;;7.50;4.87;;;;;;;23.21;50.47;98014.00;8412046;28;20374;-63
2021/09/13 18:42:26;;;;;;;13.47;7.10;;;;;;;23.20;50.58;98016.78;8388858;28;20234;-63
2021/09/13 18:46:30;;;;;;;11.00;8.23;;;;;;;23.15;50.57;98016.38;8388876;28;20203;-63
2021/09/13 18:50:34;;;;;;;14.83;9.53;;;;;;;23.10;50.89;98021.28;8388734;28;20221;-63
2021/09/13 18:54:37;;;;;;;13.13;9.90;;;;;;;23.05;51.02;98023.53;8402795;28;20191;-63
2021/09/13 18:58:40;;;;;;;13.40;10.27;;;;;;;22.96;51.53;98022.53;8393131;28;20503;-63
2021/09/13 19:02:44;;;;;;;18.20;10.53;;;;;;;22.93;51.46;98026.31;8411601;28;20234;-64
2021/09/13 19:06:49;;;;;;;15.10;10.90;;;;;;;22.87;51.63;98029.53;8419670;28;20534;-64